Time;durP1;ratioP1;P1;durP2;ratioP2;P2;SDS_P1;SDS_P2;PMS_P1;PMS_P2;Temp;Humidity;BMP_temperature;BMP_pressure;BME280_temperature;BME280_humidity;BME280_pressure;Samples;Min_cycle;Max_cycle;Signal;HPM_P1;HPM_P2
2021/06/23 10:29:04;;;;;;;9.40;6.55;;;;;;;;;;5067905;28;20388;-49
2021/06/23 10:31:30;;;;;;;8.98;5.70;;;;;;;;;;5067693;28;20437;-49
2021/06/23 10:33:56;;;;;;;8.98;6.47;;;;;;;;;;5067820;28;20029;-49
2021/06/23 10:36:24;;;;;;;9.05;6.47;;;;;;;;;;5085537;28;20028;-45
2021/06/23 10:38:54;;;;;;;12.73;7.22;;;;;;;;;;5071636;28;20016;-45
2021/06/23 10:41:20;;;;;;;9.82;6.43;;;;;;;;;;5067437;28;20106;-49
2021/06/23 10:44:19;;;;;;;9.48;6.72;;;;;;;;;;5066489;28;20025;-51
2021/06/23 10:46:46;;;;;;;9.50;6.85;;;;;;;;;;5068966;28;20025;-52
2021/06/23 10:49:18;;;;;;;10.23;7.07;;;;;;;;;;5068226;28;20111;-52
2021/06/23 10:51:47;;;;;;;7.95;7.15;;;;;;;;;;5067512;28;20028;-55
2021/06/23 10:54:31;;;;;;;13.93;7.60;;;;;;;;;;5067159;28;20032;-54
2021/06/23 10:56:56;;;;;;;10.02;7.18;;;;;;;;;;5070233;28;20122;-55
2021/06/23 10:59:36;;;;;;;9.93;6.88;;;;;;;;;;5065927;28;20383;-52
2021/06/23 11:02:12;;;;;;;9.50;6.63;;;;;;;;;;5066500;28;20036;-53
2021/06/23 11:05:03;;;;;;;8.18;7.35;;;;;;;;;;5067460;28;20056;-51
2021/06/23 11:07:49;;;;;;;10.23;6.85;;;;;;;;;;5068610;28;20028;-51
2021/06/23 11:10:15;;;;;;;8.75;7.13;;;;;;;;;;5067912;28;20029;-54
2021/06/23 11:12:46;;;;;;;8.25;7.00;;;;;;;;;;5065261;28;20029;-52
2021/06/23 11:15:16;;;;;;;7.82;7.07;;;;;;;;;;5066265;28;20108;-49
2021/06/23 11:17:46;;;;;;;8.93;7.28;;;;;;;;;;5064603;28;20529;-48
2021/06/23 11:20:21;;;;;;;8.63;7.63;;;;;;;;;;5066931;28;20036;-49
2021/06/23 11:22:51;;;;;;;9.38;7.55;;;;;;;;;;5068237;28;20033;-50
2021/06/23 11:25:27;;;;;;;9.00;7.38;;;;;;;;;;5066969;28;20028;-50
2021/06/23 11:28:13;;;;;;;8.15;7.35;;;;;;;;;;5066565;28;20072;-49
2021/06/23 11:30:44;;;;;;;9.77;7.40;;;;;;;;;;5059960;28;20033;-49
2021/06/23 11:33:28;;;;;;;7.93;7.10;;;;;;;;;;5067679;28;20067;-48
2021/06/23 11:36:02;;;;;;;8.77;7.95;;;;;;;;;;5065872;28;20060;-50
2021/06/23 11:38:27;;;;;;;7.95;7.15;;;;;;;;;;5064063;28;20021;-50
2021/06/23 11:40:55;;;;;;;8.40;6.75;;;;;;;;;;5053567;28;20079;-50
2021/06/23 11:43:21;;;;;;;8.43;7.60;;;;;;;;;;5053450;28;20051;-50
2021/06/23 11:45:47;;;;;;;9.60;7.75;;;;;;;;;;5052592;28;20033;-50
2021/06/23 11:48:16;;;;;;;10.38;7.53;;;;;;;;;;5054206;28;20033;-49
2021/06/23 11:50:43;;;;;;;10.70;8.13;;;;;;;;;;5054330;28;20025;-50
2021/06/23 11:53:11;;;;;;;8.90;7.07;;;;;;;;;;5053963;28;20025;-50
2021/06/23 12:00:45;;;;;;;10.48;8.60;;;;;;;;;;5109373;27;20393;-75
2021/06/23 12:03:16;;;;;;;11.68;9.50;;;;;;;;;;5110683;28;20063;-76
2021/06/23 12:05:43;;;;;;;12.40;9.45;;;;;;;;;;5110364;28;20050;-75
2021/06/23 12:08:09;;;;;;;9.85;8.85;;;;;;;;;;5108770;28;20015;-77
2021/06/23 12:10:36;;;;;;;10.63;9.10;;;;;;;;;;5110467;28;20420;-76
2021/06/23 12:13:02;;;;;;;12.02;10.13;;;;;;;;;;5109132;28;20020;-75
2021/06/23 12:15:29;;;;;;;10.13;9.13;;;;;;;;;;5109924;28;20027;-79
2021/06/23 12:18:01;;;;;;;9.50;8.50;;;;;;;;;;5106504;28;20030;-76
2021/06/23 12:20:30;;;;;;;12.63;9.50;;;;;;;;;;5109959;28;20020;-78
2021/06/23 12:22:58;;;;;;;9.40;8.40;;;;;;;;;;5109679;28;20475;-75
2021/06/23 12:25:30;;;;;;;9.80;8.80;;;;;;;;;;5109782;28;20012;-76
2021/06/23 12:27:56;;;;;;;8.90;8.00;;;;;;;;;;5109013;28;20035;-76
2021/06/23 12:30:26;;;;;;;10.15;9.00;;;;;;;;;;5107988;28;20012;-76
2021/06/23 12:32:53;;;;;;;9.98;8.95;;;;;;;;;;5108347;28;20332;-73
2021/06/23 12:35:20;;;;;;;9.45;8.20;;;;;;;;;;5114145;28;20024;-77
2021/06/23 12:37:46;;;;;;;9.70;8.75;;;;;;;;;;5109216;28;20066;-77
2021/06/23 12:40:13;;;;;;;10.68;9.00;;;;;;;;;;5108887;28;20395;-75
2021/06/23 12:42:39;;;;;;;10.75;8.80;;;;;;;;;;5109701;28;20060;-76
2021/06/23 12:45:05;;;;;;;13.43;8.82;;;;;;;;;;5109112;28;20047;-75
2021/06/23 12:47:30;;;;;;;9.48;8.35;;;;;;;;;;5108322;28;20510;-76
2021/06/23 12:49:56;;;;;;;10.50;8.73;;;;;;;;;;5107525;28;20151;-77
2021/06/23 12:52:22;;;;;;;9.60;8.60;;;;;;;;;;5108171;28;20038;-76
2021/06/23 12:54:47;;;;;;;14.07;8.35;;;;;;;;;;5108105;28;20070;-76
2021/06/23 12:57:13;;;;;;;9.35;8.05;;;;;;;;;;5107172;28;20027;-75
2021/06/23 12:59:39;;;;;;;11.88;9.20;;;;;;;;;;5108087;28;20050;-75
2021/06/23 13:02:04;;;;;;;9.95;8.95;;;;;;;;;;5107980;28;20065;-76
2021/06/23 13:04:30;;;;;;;10.40;9.20;;;;;;;;;;5107203;28;20028;-77
2021/06/23 13:06:55;;;;;;;11.02;10.02;;;;;;;;;;5108291;28;20030;-77
2021/06/23 13:09:22;;;;;;;10.77;8.85;;;;;;;;;;5108289;28;20371;-77
2021/06/23 13:11:47;;;;;;;10.38;9.18;;;;;;;;;;5096581;28;20030;-75
2021/06/23 13:14:13;;;;;;;10.90;9.80;;;;;;;;;;5094716;28;20472;-76
2021/06/23 13:16:39;;;;;;;10.20;9.20;;;;;;;;;;5093899;28;20035;-76
2021/06/23 13:19:05;;;;;;;11.15;9.20;;;;;;;;;;5093151;28;20417;-76
2021/06/23 13:21:30;;;;;;;10.30;8.90;;;;;;;;;;5093490;28;20466;-77
2021/06/23 13:23:55;;;;;;;9.90;8.93;;;;;;;;;;5093277;28;20055;-75
2021/06/23 13:26:25;;;;;;;9.63;8.63;;;;;;;;;;5093379;28;20038;-77
2021/06/23 13:28:50;;;;;;;9.60;8.60;;;;;;;;;;5092761;28;20053;-77
2021/06/23 13:31:17;;;;;;;10.13;9.07;;;;;;;;;;5093061;28;20485;-77
2021/06/23 13:33:43;;;;;;;10.63;9.63;;;;;;;;;;5093578;28;20034;-79
2021/06/23 13:36:08;;;;;;;10.70;8.48;;;;;;;;;;5093337;28;20028;-75
2021/06/23 13:38:34;;;;;;;10.68;9.57;;;;;;;;;;5093358;28;20111;-76
2021/06/23 13:41:01;;;;;;;10.82;9.38;;;;;;;;;;5093106;28;20028;-80
2021/06/23 13:43:27;;;;;;;10.43;9.15;;;;;;;;;;5092966;28;20062;-77
2021/06/23 13:45:53;;;;;;;9.70;8.20;;;;;;;;;;5092942;28;20035;-74
2021/06/23 13:48:19;;;;;;;9.88;8.88;;;;;;;;;;5091329;28;20042;-76
2021/06/23 13:50:46;;;;;;;10.60;9.50;;;;;;;;;;5092790;28;20032;-76
2021/06/23 13:53:12;;;;;;;10.32;9.30;;;;;;;;;;5092837;28;20031;-75
2021/06/23 13:55:40;;;;;;;9.80;8.85;;;;;;;;;;5092900;28;20425;-76
2021/06/23 13:58:06;;;;;;;10.80;9.70;;;;;;;;;;5092419;28;20589;-73
2021/06/23 14:00:34;;;;;;;11.20;10.10;;;;;;;;;;5092708;28;20115;-74
2021/06/23 14:03:00;;;;;;;10.73;9.73;;;;;;;;;;5092575;28;20023;-74
2021/06/23 14:05:25;;;;;;;10.75;9.57;;;;;;;;;;5092873;28;20054;-75
2021/06/23 14:07:52;;;;;;;12.35;11.15;;;;;;;;;;5091962;28;20036;-77
2021/06/23 14:10:18;;;;;;;11.32;10.13;;;;;;;;;;5092486;28;20023;-70
2021/06/23 14:12:44;;;;;;;10.70;9.40;;;;;;;;;;5093134;28;20051;-72
2021/06/23 14:15:10;;;;;;;9.90;8.82;;;;;;;;;;5092774;28;20107;-72
2021/06/23 14:17:38;;;;;;;9.55;8.57;;;;;;;;;;5092575;28;20044;-75
2021/06/23 14:20:06;;;;;;;8.57;7.78;;;;;;;;;;5091650;28;20395;-72
2021/06/23 14:22:32;;;;;;;8.30;7.57;;;;;;;;;;5093199;28;20024;-75
2021/06/23 14:24:58;;;;;;;8.55;7.75;;;;;;;;;;5093150;28;20073;-72
2021/06/23 14:27:25;;;;;;;9.23;7.45;;;;;;;;;;5093059;28;20016;-75
2021/06/23 14:29:51;;;;;;;7.82;6.93;;;;;;;;;;5092824;28;20028;-77
2021/06/23 14:32:17;;;;;;;8.10;7.22;;;;;;;;;;5092830;28;20074;-72
2021/06/23 14:34:43;;;;;;;9.18;7.10;;;;;;;;;;5092416;28;20043;-72
2021/06/23 14:37:08;;;;;;;8.65;7.18;;;;;;;;;;5092927;28;20024;-76
2021/06/23 14:39:34;;;;;;;7.47;6.57;;;;;;;;;;5093375;28;20053;-72
2021/06/23 14:41:59;;;;;;;8.05;6.47;;;;;;;;;;5092658;28;20027;-71
2021/06/23 14:44:25;;;;;;;7.00;6.30;;;;;;;;;;5092625;28;20050;-75
2021/06/23 14:46:51;;;;;;;7.78;6.97;;;;;;;;;;5093393;28;20042;-74
2021/06/23 14:49:16;;;;;;;7.43;6.65;;;;;;;;;;5093494;28;20039;-76
2021/06/23 14:51:42;;;;;;;7.60;6.90;;;;;;;;;;5092770;28;20024;-73
2021/06/23 14:54:07;;;;;;;7.15;6.18;;;;;;;;;;5092677;28;20106;-74
2021/06/23 14:56:33;;;;;;;6.75;6.15;;;;;;;;;;5093069;28;21617;-75
2021/06/23 14:59:00;;;;;;;10.13;6.60;;;;;;;;;;5092786;28;20507;-76
2021/06/23 15:01:25;;;;;;;9.38;7.28;;;;;;;;;;5093485;28;20348;-74
2021/06/23 15:03:51;;;;;;;7.78;7.05;;;;;;;;;;5093235;28;20035;-73
2021/06/23 15:06:16;;;;;;;7.95;7.20;;;;;;;;;;5092373;28;20028;-75
2021/06/23 15:08:42;;;;;;;7.60;6.80;;;;;;;;;;5093250;28;20028;-73
2021/06/23 15:11:08;;;;;;;7.70;6.90;;;;;;;;;;5092740;28;20112;-73
2021/06/23 15:13:35;;;;;;;8.15;6.53;;;;;;;;;;5093381;28;20024;-76
2021/06/23 15:16:01;;;;;;;8.75;7.93;;;;;;;;;;5092601;28;20069;-73
2021/06/23 15:18:27;;;;;;;8.50;7.70;;;;;;;;;;5092871;28;20024;-74
2021/06/23 15:20:53;;;;;;;8.52;7.72;;;;;;;;;;5091601;28;20062;-76
2021/06/23 15:23:20;;;;;;;9.68;8.40;;;;;;;;;;5091723;28;20062;-77
2021/06/23 15:25:46;;;;;;;9.73;8.73;;;;;;;;;;5092160;28;20039;-78
2021/06/23 15:28:11;;;;;;;9.02;8.13;;;;;;;;;;5092744;28;20024;-75
2021/06/23 15:30:37;;;;;;;10.55;9.55;;;;;;;;;;5091598;28;20031;-74
2021/06/23 15:33:03;;;;;;;11.07;9.80;;;;;;;;;;5092029;28;20027;-76
2021/06/23 15:35:29;;;;;;;10.80;9.75;;;;;;;;;;5095929;28;20027;-75
2021/06/23 15:37:55;;;;;;;11.32;9.90;;;;;;;;;;5090824;28;20478;-77
2021/06/23 15:40:20;;;;;;;11.82;10.25;;;;;;;;;;5090755;28;20251;-74
2021/06/23 15:42:46;;;;;;;11.65;9.43;;;;;;;;;;5091087;28;20020;-76
2021/06/23 15:45:13;;;;;;;10.02;9.02;;;;;;;;;;5091135;28;20077;-74
2021/06/23 15:47:40;;;;;;;10.38;9.27;;;;;;;;;;5091170;28;20043;-72
2021/06/23 15:50:08;;;;;;;9.93;8.68;;;;;;;;;;5090104;28;20266;-76
2021/06/23 15:52:35;;;;;;;10.38;9.07;;;;;;;;;;5090442;28;20395;-75
2021/06/23 15:55:01;;;;;;;10.18;9.18;;;;;;;;;;5090573;28;20020;-75
2021/06/23 15:57:27;;;;;;;11.13;9.32;;;;;;;;;;5090949;28;20280;-74
2021/06/23 15:59:53;;;;;;;9.85;8.85;;;;;;;;;;5090238;28;20263;-73
2021/06/23 16:02:19;;;;;;;10.75;9.75;;;;;;;;;;5090404;28;20072;-77
2021/06/23 16:04:45;;;;;;;10.23;8.85;;;;;;;;;;5090499;28;20028;-75
2021/06/23 16:07:11;;;;;;;9.07;8.18;;;;;;;;;;5094113;28;20059;-75
2021/06/23 16:09:38;;;;;;;10.30;9.30;;;;;;;;;;5090438;28;20031;-75
2021/06/23 16:12:05;;;;;;;10.18;9.18;;;;;;;;;;5089868;28;20028;-73
2021/06/23 16:14:31;;;;;;;10.63;9.40;;;;;;;;;;5091168;28;20024;-72
2021/06/23 16:16:57;;;;;;;10.25;8.73;;;;;;;;;;5090920;28;20398;-72
2021/06/23 16:19:23;;;;;;;11.68;9.20;;;;;;;;;;5090835;28;20018;-73
2021/06/23 16:21:51;;;;;;;10.57;9.57;;;;;;;;;;5091091;28;20030;-74
2021/06/23 16:24:20;;;;;;;11.50;10.32;;;;;;;;;;5092308;28;20131;-73
2021/06/23 16:26:49;;;;;;;10.57;8.73;;;;;;;;;;5092028;28;20023;-73
2021/06/23 16:29:16;;;;;;;9.52;8.55;;;;;;;;;;5090409;28;20028;-73
2021/06/23 16:31:44;;;;;;;10.35;9.35;;;;;;;;;;5091552;28;20081;-73
2021/06/23 16:34:09;;;;;;;11.98;9.55;;;;;;;;;;5090089;28;20012;-73
2021/06/23 16:36:35;;;;;;;12.68;10.05;;;;;;;;;;5109926;28;20496;-73
2021/06/23 16:39:01;;;;;;;11.98;9.07;;;;;;;;;;5096154;28;20024;-73
2021/06/23 16:41:26;;;;;;;12.38;9.55;;;;;;;;;;5090642;28;20094;-74
2021/06/23 16:43:52;;;;;;;9.32;8.38;;;;;;;;;;5090858;28;20296;-74
2021/06/23 16:46:17;;;;;;;10.35;9.35;;;;;;;;;;5091858;28;20524;-74
2021/06/23 16:48:43;;;;;;;10.48;9.43;;;;;;;;;;5093972;28;20032;-74
2021/06/23 16:51:08;;;;;;;10.80;9.45;;;;;;;;;;5094164;28;20035;-74
2021/06/23 16:53:34;;;;;;;12.88;9.27;;;;;;;;;;5094339;28;20611;-73
2021/06/23 16:56:01;;;;;;;10.45;9.13;;;;;;;;;;5094467;28;20028;-74
2021/06/23 16:58:30;;;;;;;12.15;9.05;;;;;;;;;;5094156;28;20028;-73
2021/06/23 17:00:56;;;;;;;11.52;9.48;;;;;;;;;;5094602;28;20031;-73
2021/06/23 17:03:22;;;;;;;10.80;9.68;;;;;;;;;;5094461;28;20095;-76
2021/06/23 17:05:48;;;;;;;12.02;10.18;;;;;;;;;;5094433;28;20035;-74
2021/06/23 17:08:14;;;;;;;11.30;9.23;;;;;;;;;;5106168;28;20389;-73
2021/06/23 17:10:40;;;;;;;12.00;10.68;;;;;;;;;;5103918;28;20474;-73
2021/06/23 17:13:07;;;;;;;12.57;10.25;;;;;;;;;;5093186;28;20107;-73
2021/06/23 17:15:32;;;;;;;13.65;10.52;;;;;;;;;;5094610;28;20110;-74
2021/06/23 17:17:59;;;;;;;12.18;10.52;;;;;;;;;;5093917;28;20111;-73
2021/06/23 17:20:24;;;;;;;14.48;10.75;;;;;;;;;;5094915;28;20016;-71
2021/06/23 17:22:50;;;;;;;13.52;9.73;;;;;;;;;;5095183;28;20028;-72
2021/06/23 17:25:16;;;;;;;11.98;9.60;;;;;;;;;;5094812;28;20531;-72
2021/06/23 17:27:42;;;;;;;12.77;10.52;;;;;;;;;;5095216;28;20107;-72
2021/06/23 17:30:09;;;;;;;11.75;9.38;;;;;;;;;;5095044;28;20401;-72
2021/06/23 17:32:40;;;;;;;10.95;8.60;;;;;;;;;;5094885;28;20059;-73
2021/06/23 17:35:07;;;;;;;12.30;8.90;;;;;;;;;;5101017;28;20413;-74
2021/06/23 17:37:33;;;;;;;10.13;8.30;;;;;;;;;;5101723;28;20032;-73
2021/06/23 17:39:59;;;;;;;12.65;9.20;;;;;;;;;;5093814;28;20062;-72
2021/06/23 17:42:25;;;;;;;14.27;9.38;;;;;;;;;;5092290;28;20536;-72
2021/06/23 17:44:51;;;;;;;11.18;9.38;;;;;;;;;;5091536;28;20122;-73
2021/06/23 17:47:18;;;;;;;11.35;8.80;;;;;;;;;;5093312;28;20119;-74
2021/06/23 17:49:44;;;;;;;9.90;8.90;;;;;;;;;;5093176;28;20066;-73
2021/06/23 17:52:10;;;;;;;9.68;8.68;;;;;;;;;;5091512;28;20036;-72
2021/06/23 17:54:35;;;;;;;9.88;8.43;;;;;;;;;;5092445;28;20032;-75
2021/06/23 17:57:01;;;;;;;11.63;9.13;;;;;;;;;;5092097;28;20081;-74
2021/06/23 17:59:26;;;;;;;9.57;8.57;;;;;;;;;;5092535;28;20051;-72
2021/06/23 18:01:52;;;;;;;13.13;9.32;;;;;;;;;;5091368;28;20028;-73
2021/06/23 18:04:17;;;;;;;9.70;8.70;;;;;;;;;;5091528;28;20020;-74
2021/06/23 18:06:42;;;;;;;11.10;8.55;;;;;;;;;;5092677;28;20039;-73
2021/06/23 18:09:08;;;;;;;9.63;8.30;;;;;;;;;;5094033;28;20016;-74
2021/06/23 18:11:33;;;;;;;10.02;7.68;;;;;;;;;;5092250;28;20032;-73
2021/06/23 18:13:59;;;;;;;9.07;7.65;;;;;;;;;;5092434;28;20067;-73
2021/06/23 18:16:24;;;;;;;9.30;7.43;;;;;;;;;;5093016;28;20042;-73
2021/06/23 18:18:53;;;;;;;8.65;7.65;;;;;;;;;;5090582;28;20050;-72
2021/06/23 18:21:18;;;;;;;9.00;7.53;;;;;;;;;;5092457;28;20034;-73
2021/06/23 18:23:44;;;;;;;9.18;7.80;;;;;;;;;;5093643;28;20370;-72
2021/06/23 18:26:09;;;;;;;11.57;8.30;;;;;;;;;;5091989;28;20046;-73
2021/06/23 18:28:35;;;;;;;12.52;7.53;;;;;;;;;;5093260;28;20027;-74
2021/06/23 18:31:01;;;;;;;10.20;8.30;;;;;;;;;;5092386;28;20467;-73
2021/06/23 18:33:26;;;;;;;10.63;7.80;;;;;;;;;;5093263;28;20016;-72
2021/06/23 18:35:52;;;;;;;8.52;7.10;;;;;;;;;;5095274;28;20537;-71
2021/06/23 18:38:17;;;;;;;9.25;7.45;;;;;;;;;;5093983;28;20027;-75
2021/06/23 18:40:42;;;;;;;10.32;7.65;;;;;;;;;;5094401;28;20103;-77
2021/06/23 18:43:08;;;;;;;10.23;8.07;;;;;;;;;;5093804;28;20028;-72
2021/06/23 18:45:35;;;;;;;9.20;7.65;;;;;;;;;;5093303;28;20040;-76
2021/06/23 18:48:05;;;;;;;11.75;8.45;;;;;;;;;;5093029;28;20149;-75
2021/06/23 18:50:31;;;;;;;10.82;9.05;;;;;;;;;;5093151;28;20059;-77
2021/06/23 18:52:57;;;;;;;10.73;9.15;;;;;;;;;;5093291;28;20056;-74
2021/06/23 18:55:26;;;;;;;13.57;9.18;;;;;;;;;;5093439;28;20403;-74
2021/06/23 18:57:55;;;;;;;9.90;8.65;;;;;;;;;;5092583;28;20057;-76
2021/06/23 19:00:22;;;;;;;15.25;9.63;;;;;;;;;;5092747;28;20063;-75
2021/06/23 19:02:49;;;;;;;12.38;9.75;;;;;;;;;;5092924;28;20157;-73
2021/06/23 19:05:16;;;;;;;11.35;9.32;;;;;;;;;;5092882;28;20070;-74
2021/06/23 19:07:43;;;;;;;15.57;9.20;;;;;;;;;;5092647;28;20116;-74
2021/06/23 19:10:10;;;;;;;11.15;8.30;;;;;;;;;;5091981;28;20020;-73
2021/06/23 19:12:36;;;;;;;11.30;9.00;;;;;;;;;;5092663;28;20024;-73
2021/06/23 19:15:03;;;;;;;13.57;9.15;;;;;;;;;;5092752;28;20024;-74
2021/06/23 19:17:28;;;;;;;9.52;8.00;;;;;;;;;;5091260;28;20086;-74
2021/06/23 19:19:54;;;;;;;12.85;8.63;;;;;;;;;;5092357;28;20078;-73
2021/06/23 19:22:19;;;;;;;11.02;8.25;;;;;;;;;;5092757;28;20487;-73
2021/06/23 19:24:45;;;;;;;12.48;8.73;;;;;;;;;;5105392;28;20053;-74
2021/06/23 19:27:11;;;;;;;13.27;8.45;;;;;;;;;;5096599;28;20020;-74
2021/06/23 19:29:37;;;;;;;10.38;7.53;;;;;;;;;;5092683;28;20160;-74
2021/06/23 19:32:04;;;;;;;12.45;9.10;;;;;;;;;;5093194;28;20063;-74
2021/06/23 19:34:31;;;;;;;9.88;8.30;;;;;;;;;;5092133;28;20062;-74
2021/06/23 19:36:57;;;;;;;12.35;9.00;;;;;;;;;;5092819;28;20027;-74
2021/06/23 19:39:22;;;;;;;10.35;8.35;;;;;;;;;;5093356;28;20020;-74
2021/06/23 19:41:48;;;;;;;11.60;8.07;;;;;;;;;;5093128;28;20081;-74
2021/06/23 19:44:13;;;;;;;9.95;8.00;;;;;;;;;;5092888;28;20034;-74
2021/06/23 19:46:39;;;;;;;9.77;8.43;;;;;;;;;;5092512;28;20031;-74
2021/06/23 19:49:05;;;;;;;11.07;8.57;;;;;;;;;;5091402;28;20032;-75
2021/06/23 19:51:30;;;;;;;11.30;7.95;;;;;;;;;;5092902;28;20032;-73
2021/06/23 19:53:56;;;;;;;10.95;7.90;;;;;;;;;;5092798;28;20027;-73
2021/06/23 19:56:23;;;;;;;11.15;9.18;;;;;;;;;;5091798;28;20352;-74
2021/06/23 19:58:48;;;;;;;12.05;8.73;;;;;;;;;;5092857;28;20409;-72
2021/06/23 20:01:14;;;;;;;10.90;8.55;;;;;;;;;;5091811;28;20130;-75
2021/06/23 20:03:39;;;;;;;11.40;8.68;;;;;;;;;;5091427;28;20394;-76
2021/06/23 20:06:05;;;;;;;13.70;9.25;;;;;;;;;;5091900;28;20630;-77
2021/06/23 20:08:31;;;;;;;11.93;8.50;;;;;;;;;;5092131;28;20039;-76
2021/06/23 20:10:57;;;;;;;11.38;8.82;;;;;;;;;;5091466;28;20471;-76
2021/06/23 20:13:22;;;;;;;13.55;9.20;;;;;;;;;;5091774;28;20108;-76
2021/06/23 20:15:48;;;;;;;10.57;9.25;;;;;;;;;;5090950;28;20028;-76
2021/06/23 20:18:13;;;;;;;10.13;8.55;;;;;;;;;;5089589;28;20408;-76
2021/06/23 20:20:39;;;;;;;12.70;9.05;;;;;;;;;;5091776;28;20024;-76
2021/06/23 20:23:05;;;;;;;11.88;8.57;;;;;;;;;;5095414;28;20020;-76
2021/06/23 20:25:30;;;;;;;11.75;8.90;;;;;;;;;;5095688;28;20085;-76
2021/06/23 20:27:56;;;;;;;12.13;8.05;;;;;;;;;;5095383;28;20028;-76
2021/06/23 20:30:22;;;;;;;11.35;9.05;;;;;;;;;;5094574;28;20024;-76
2021/06/23 20:32:48;;;;;;;13.10;9.38;;;;;;;;;;5096042;28;20107;-75
2021/06/23 20:35:14;;;;;;;10.80;8.50;;;;;;;;;;5096321;28;20440;-75
2021/06/23 20:37:41;;;;;;;13.43;8.65;;;;;;;;;;5096910;28;20024;-74
2021/06/23 20:40:13;;;;;;;11.82;8.77;;;;;;;;;;5095923;28;20028;-75
2021/06/23 20:42:39;;;;;;;11.48;8.20;;;;;;;;;;5093929;28;20028;-76
2021/06/23 20:45:06;;;;;;;10.63;8.43;;;;;;;;;;5096289;28;20023;-75
2021/06/23 20:47:32;;;;;;;10.85;8.43;;;;;;;;;;5096257;28;20051;-75
2021/06/23 20:49:57;;;;;;;11.95;8.60;;;;;;;;;;5094580;28;20024;-75
2021/06/23 20:52:23;;;;;;;11.35;8.35;;;;;;;;;;5094006;28;20043;-75
2021/06/23 20:54:48;;;;;;;10.90;8.70;;;;;;;;;;5093699;28;20050;-75
2021/06/23 20:57:16;;;;;;;10.18;8.07;;;;;;;;;;5093482;28;20024;-76
2021/06/23 20:59:42;;;;;;;9.63;7.93;;;;;;;;;;5094017;28;20067;-75
2021/06/23 21:02:08;;;;;;;9.60;8.07;;;;;;;;;;5094237;28;20059;-75
2021/06/23 21:04:41;;;;;;;11.50;8.52;;;;;;;;;;5093584;28;20035;-75
2021/06/23 21:07:08;;;;;;;9.80;8.00;;;;;;;;;;5095043;28;20398;-75
2021/06/23 21:09:36;;;;;;;9.02;8.00;;;;;;;;;;5093771;28;20047;-75
2021/06/23 21:12:03;;;;;;;10.02;7.95;;;;;;;;;;5094954;28;20028;-75
2021/06/23 21:14:31;;;;;;;11.18;8.25;;;;;;;;;;5094858;28;20390;-75
2021/06/23 21:16:58;;;;;;;8.93;7.97;;;;;;;;;;5094712;28;20032;-76
2021/06/23 21:19:27;;;;;;;10.35;8.48;;;;;;;;;;5094538;28;20477;-75
2021/06/23 21:21:53;;;;;;;10.10;8.73;;;;;;;;;;5095492;28;20063;-76
2021/06/23 21:24:36;;;;;;;9.25;8.30;;;;;;;;;;5093864;28;20107;-76
2021/06/23 21:27:12;;;;;;;10.98;8.50;;;;;;;;;;5095210;28;20024;-76
2021/06/23 21:29:45;;;;;;;9.73;8.70;;;;;;;;;;5074535;28;20029;-76
2021/06/23 21:32:15;;;;;;;11.13;9.55;;;;;;;;;;5073200;28;20051;-76
2021/06/23 21:34:41;;;;;;;9.02;8.13;;;;;;;;;;5092773;28;20031;-75
2021/06/23 21:37:23;;;;;;;9.30;8.40;;;;;;;;;;5102490;28;20127;-76
2021/06/23 21:39:48;;;;;;;10.13;9.05;;;;;;;;;;5094397;28;20020;-75
2021/06/23 21:42:14;;;;;;;9.25;7.97;;;;;;;;;;5093618;28;20031;-76
2021/06/23 21:44:39;;;;;;;9.15;8.23;;;;;;;;;;5093142;28;20883;-76
2021/06/23 21:47:05;;;;;;;8.85;7.82;;;;;;;;;;5092772;28;20027;-75
2021/06/23 21:49:35;;;;;;;9.68;7.38;;;;;;;;;;5092855;28;20028;-76
2021/06/23 21:52:05;;;;;;;12.05;8.57;;;;;;;;;;5093941;28;20536;-76
2021/06/23 21:54:33;;;;;;;10.95;8.80;;;;;;;;;;5093309;28;20052;-76
2021/06/23 21:57:01;;;;;;;9.02;8.13;;;;;;;;;;5092729;28;20063;-75
2021/06/23 21:59:35;;;;;;;10.10;8.85;;;;;;;;;;5092725;28;20399;-75
2021/06/23 22:02:17;;;;;;;12.52;8.70;;;;;;;;;;5093142;28;20525;-76
2021/06/23 22:04:51;;;;;;;9.43;8.40;;;;;;;;;;5087868;28;20031;-75
2021/06/23 22:07:19;;;;;;;9.80;8.40;;;;;;;;;;5094537;28;20028;-76
2021/06/23 22:09:49;;;;;;;9.98;8.15;;;;;;;;;;5093450;28;20086;-75
2021/06/23 22:12:23;;;;;;;9.23;7.70;;;;;;;;;;5092941;28;20028;-75
2021/06/23 22:14:49;;;;;;;11.00;8.65;;;;;;;;;;5092958;28;20449;-75
2021/06/23 22:17:15;;;;;;;9.43;8.30;;;;;;;;;;5092101;28;20086;-75
2021/06/23 22:19:42;;;;;;;12.88;9.40;;;;;;;;;;5093276;28;20100;-76
2021/06/23 22:22:09;;;;;;;10.20;8.75;;;;;;;;;;5093259;28;20089;-76
2021/06/23 22:24:36;;;;;;;10.18;8.60;;;;;;;;;;5092496;28;20031;-76
2021/06/23 22:27:02;;;;;;;14.07;9.73;;;;;;;;;;5092875;28;20031;-75
2021/06/23 22:29:28;;;;;;;11.77;9.38;;;;;;;;;;5093092;28;20024;-75
2021/06/23 22:31:59;;;;;;;11.48;9.40;;;;;;;;;;5093088;28;20456;-75
2021/06/23 22:34:25;;;;;;;11.15;9.25;;;;;;;;;;5092908;28;20022;-75
2021/06/23 22:36:50;;;;;;;11.55;9.55;;;;;;;;;;5110871;28;20114;-75
2021/06/23 22:39:18;;;;;;;14.57;10.15;;;;;;;;;;5093758;28;20530;-76
2021/06/23 22:41:58;;;;;;;12.43;10.20;;;;;;;;;;5094049;28;20106;-75
2021/06/23 22:44:24;;;;;;;11.90;8.95;;;;;;;;;;5091618;28;20059;-74
2021/06/23 22:49:41;;;;;;;8.95;8.02;;;;;;;;;;5084993;28;20495;-74
2021/06/23 22:52:13;;;;;;;10.40;8.35;;;;;;;;;;5091292;28;20394;-75
2021/06/23 22:54:54;;;;;;;10.57;8.70;;;;;;;;;;5091776;28;20031;-71
2021/06/23 22:57:19;;;;;;;10.77;8.50;;;;;;;;;;5090239;28;20024;-71
2021/06/23 22:59:45;;;;;;;12.82;9.40;;;;;;;;;;5091872;28;20434;-72
2021/06/23 23:02:11;;;;;;;9.43;8.15;;;;;;;;;;5091418;28;20520;-73
2021/06/23 23:04:43;;;;;;;12.40;8.85;;;;;;;;;;5091465;28;20085;-73
2021/06/23 23:07:09;;;;;;;10.18;8.55;;;;;;;;;;5091853;28;20374;-73
2021/06/23 23:09:35;;;;;;;10.52;9.10;;;;;;;;;;5093456;28;20364;-72
2021/06/23 23:12:02;;;;;;;10.73;9.60;;;;;;;;;;5093274;28;20116;-73
2021/06/23 23:14:30;;;;;;;11.57;9.80;;;;;;;;;;5092684;28;20031;-73
2021/06/23 23:16:57;;;;;;;11.93;9.50;;;;;;;;;;5092184;28;20035;-72
2021/06/23 23:19:24;;;;;;;11.30;9.50;;;;;;;;;;5091201;28;20036;-71
2021/06/23 23:21:51;;;;;;;10.10;8.88;;;;;;;;;;5091513;28;20016;-71
2021/06/23 23:24:18;;;;;;;8.98;8.07;;;;;;;;;;5091606;28;20032;-71
2021/06/23 23:26:44;;;;;;;12.20;7.80;;;;;;;;;;5091894;28;20051;-71
2021/06/23 23:29:10;;;;;;;8.95;7.90;;;;;;;;;;5092076;28;20348;-71
2021/06/23 23:31:36;;;;;;;9.73;8.27;;;;;;;;;;5091346;28;20028;-71
2021/06/23 23:34:03;;;;;;;10.35;8.65;;;;;;;;;;5091793;28;20053;-71
2021/06/23 23:36:30;;;;;;;9.05;8.13;;;;;;;;;;5089924;28;20032;-71
2021/06/23 23:38:55;;;;;;;8.73;7.80;;;;;;;;;;5091251;28;20028;-71
2021/06/23 23:41:21;;;;;;;12.82;8.35;;;;;;;;;;5092032;28;20024;-71
2021/06/23 23:43:46;;;;;;;8.88;7.95;;;;;;;;;;5091518;28;20028;-71
2021/06/23 23:46:12;;;;;;;9.63;7.45;;;;;;;;;;5091744;28;20030;-71
2021/06/23 23:48:38;;;;;;;9.57;8.18;;;;;;;;;;5090757;28;20463;-71
2021/06/23 23:51:05;;;;;;;8.32;7.53;;;;;;;;;;5091083;28;20521;-71
2021/06/23 23:53:30;;;;;;;9.02;7.75;;;;;;;;;;5090235;28;20028;-71
2021/06/23 23:55:57;;;;;;;9.25;8.07;;;;;;;;;;5090990;28;20035;-71
2021/06/23 23:58:24;;;;;;;7.88;7.07;;;;;;;;;;5090993;28;20031;-71
